sensor_id;sensor_type;location;lat;lon;timestamp;P1;P4;P2;P0;N10;N4;N25;N1;N05;TS
66505;SPS30;53332;51.082;5.832;2024-02-23T00:00:24;0.63;0.63;0.63;0.59;4.73;4.73;4.73;4.72;4.15;0.44
66505;SPS30;53332;51.082;5.832;2024-02-23T00:02:49;0.58;0.58;0.58;0.55;4.41;4.41;4.40;4.39;3.86;0.44
66505;SPS30;53332;51.082;5.832;2024-02-23T00:05:15;0.64;0.64;0.64;0.60;4.80;4.80;4.80;4.78;4.20;0.46
66505;SPS30;53332;51.082;5.832;2024-02-23T00:07:40;0.52;0.52;0.52;0.49;3.94;3.94;3.94;3.93;3.45;0.46
66505;SPS30;53332;51.082;5.832;2024-02-23T00:10:06;0.46;0.46;0.46;0.43;3.44;3.44;3.44;3.43;3.01;0.45
66505;SPS30;53332;51.082;5.832;2024-02-23T00:12:32;0.54;0.54;0.54;0.51;4.08;4.08;4.08;4.07;3.57;0.45
66505;SPS30;53332;51.082;5.832;2024-02-23T00:14:57;0.46;0.46;0.46;0.44;3.48;3.48;3.47;3.47;3.04;0.45
66505;SPS30;53332;51.082;5.832;2024-02-23T00:17:23;0.36;0.36;0.36;0.34;2.72;2.72;2.72;2.71;2.38;0.45
66505;SPS30;53332;51.082;5.832;2024-02-23T00:19:49;0.37;0.37;0.37;0.35;2.76;2.76;2.76;2.75;2.42;0.45
66505;SPS30;53332;51.082;5.832;2024-02-23T00:22:14;0.47;0.47;0.47;0.45;3.58;3.58;3.58;3.57;3.13;0.46
66505;SPS30;53332;51.082;5.832;2024-02-23T00:24:40;0.48;0.48;0.48;0.45;3.63;3.63;3.63;3.62;3.18;0.46
66505;SPS30;53332;51.082;5.832;2024-02-23T00:27:06;0.55;0.55;0.55;0.52;4.15;4.15;4.15;4.14;3.63;0.46
66505;SPS30;53332;51.082;5.832;2024-02-23T00:29:31;0.52;0.52;0.52;0.50;3.96;3.96;3.96;3.95;3.47;0.47
66505;SPS30;53332;51.082;5.832;2024-02-23T00:31:57;0.53;0.53;0.53;0.50;4.00;4.00;4.00;3.98;3.50;0.47
66505;SPS30;53332;51.082;5.832;2024-02-23T00:34:22;0.50;0.50;0.50;0.48;3.81;3.80;3.80;3.79;3.33;0.47
66505;SPS30;53332;51.082;5.832;2024-02-23T00:36:49;0.53;0.53;0.53;0.51;4.04;4.04;4.04;4.03;3.54;0.48
66505;SPS30;53332;51.082;5.832;2024-02-23T00:39:14;0.44;0.44;0.44;0.41;3.30;3.30;3.30;3.29;2.89;0.48
66505;SPS30;53332;51.082;5.832;2024-02-23T00:41:40;0.38;0.38;0.38;0.36;2.87;2.87;2.87;2.86;2.52;0.49
66505;SPS30;53332;51.082;5.832;2024-02-23T00:44:06;0.40;0.40;0.40;0.38;3.03;3.03;3.03;3.02;2.65;0.49
66505;SPS30;53332;51.082;5.832;2024-02-23T00:46:31;0.44;0.44;0.44;0.42;3.33;3.33;3.33;3.32;2.91;0.49
66505;SPS30;53332;51.082;5.832;2024-02-23T00:48:57;0.27;0.27;0.27;0.26;2.07;2.07;2.07;2.06;1.81;0.51
66505;SPS30;53332;51.082;5.832;2024-02-23T00:51:22;0.38;0.38;0.38;0.36;2.91;2.91;2.90;2.90;2.54;0.52
66505;SPS30;53332;51.082;5.832;2024-02-23T00:53:48;0.38;0.38;0.38;0.36;2.86;2.86;2.86;2.85;2.51;0.53
66505;SPS30;53332;51.082;5.832;2024-02-23T00:56:13;0.46;0.46;0.46;0.43;3.43;3.43;3.43;3.42;3.00;0.55
66505;SPS30;53332;51.082;5.832;2024-02-23T00:58:39;0.41;0.41;0.40;0.38;3.01;3.01;3.01;2.99;2.62;0.56
66505;SPS30;53332;51.082;5.832;2024-02-23T01:01:05;0.43;0.43;0.42;0.39;3.12;3.12;3.11;3.09;2.71;0.56
66505;SPS30;53332;51.082;5.832;2024-02-23T01:03:30;0.40;0.40;0.39;0.36;2.85;2.85;2.84;2.83;2.47;0.57
66505;SPS30;53332;51.082;5.832;2024-02-23T01:05:56;0.36;0.35;0.35;0.32;2.53;2.53;2.53;2.51;2.19;0.57
66505;SPS30;53332;51.082;5.832;2024-02-23T01:08:21;0.34;0.34;0.33;0.30;2.43;2.43;2.43;2.41;2.11;0.58
66505;SPS30;53332;51.082;5.832;2024-02-23T01:10:47;0.25;0.25;0.24;0.22;1.78;1.77;1.77;1.76;1.54;0.58
66505;SPS30;53332;51.082;5.832;2024-02-23T01:13:12;0.23;0.23;0.23;0.21;1.66;1.66;1.66;1.65;1.44;0.57
66505;SPS30;53332;51.082;5.832;2024-02-23T01:15:38;0.34;0.34;0.33;0.30;2.44;2.43;2.43;2.41;2.11;0.57
66505;SPS30;53332;51.082;5.832;2024-02-23T01:18:04;0.38;0.38;0.37;0.33;2.67;2.67;2.66;2.64;2.30;0.58
66505;SPS30;53332;51.082;5.832;2024-02-23T01:20:32;0.36;0.36;0.35;0.31;2.48;2.48;2.48;2.46;2.14;0.59
66505;SPS30;53332;51.082;5.832;2024-02-23T01:22:58;0.43;0.43;0.41;0.37;2.95;2.95;2.94;2.91;2.53;0.59
66505;SPS30;53332;51.082;5.832;2024-02-23T01:25:24;0.41;0.40;0.39;0.35;2.76;2.76;2.75;2.72;2.37;0.61
66505;SPS30;53332;51.082;5.832;2024-02-23T01:27:49;0.44;0.44;0.42;0.37;2.99;2.99;2.98;2.95;2.56;0.61
66505;SPS30;53332;51.082;5.832;2024-02-23T01:30:15;0.49;0.49;0.47;0.42;3.34;3.34;3.34;3.30;2.87;0.62
66505;SPS30;53332;51.082;5.832;2024-02-23T01:32:40;0.47;0.46;0.44;0.39;3.14;3.13;3.13;3.09;2.68;0.62
66505;SPS30;53332;51.082;5.832;2024-02-23T01:35:06;0.52;0.51;0.48;0.43;3.41;3.41;3.40;3.35;2.90;0.63
66505;SPS30;53332;51.082;5.832;2024-02-23T01:37:33;0.42;0.42;0.40;0.35;2.80;2.79;2.79;2.75;2.38;0.63
66505;SPS30;53332;51.082;5.832;2024-02-23T01:39:59;0.38;0.38;0.36;0.31;2.50;2.50;2.50;2.47;2.13;0.63
66505;SPS30;53332;51.082;5.832;2024-02-23T01:42:25;0.48;0.47;0.44;0.38;3.07;3.07;3.06;3.01;2.60;0.64
66505;SPS30;53332;51.082;5.832;2024-02-23T01:44:51;0.38;0.37;0.34;0.29;2.35;2.34;2.34;2.30;1.97;0.65
66505;SPS30;53332;51.082;5.832;2024-02-23T01:47:17;0.44;0.43;0.39;0.33;2.65;2.65;2.64;2.58;2.21;0.65
66505;SPS30;53332;51.082;5.832;2024-02-23T01:49:43;0.63;0.62;0.56;0.47;3.76;3.75;3.74;3.66;3.13;0.65
66505;SPS30;53332;51.082;5.832;2024-02-23T01:52:10;0.70;0.69;0.63;0.53;4.24;4.24;4.22;4.14;3.54;0.66
66505;SPS30;53332;51.082;5.832;2024-02-23T01:54:37;0.60;0.59;0.54;0.44;3.55;3.54;3.53;3.45;2.94;0.68
66505;SPS30;53332;51.082;5.832;2024-02-23T01:57:02;0.48;0.47;0.42;0.35;2.77;2.77;2.76;2.69;2.29;0.68
66505;SPS30;53332;51.082;5.832;2024-02-23T01:59:28;0.45;0.44;0.40;0.33;2.63;2.62;2.61;2.56;2.18;0.67
66505;SPS30;53332;51.082;5.832;2024-02-23T02:01:55;0.43;0.42;0.38;0.32;2.54;2.54;2.53;2.47;2.11;0.67
66505;SPS30;53332;51.082;5.832;2024-02-23T02:04:21;0.39;0.38;0.35;0.28;2.27;2.27;2.26;2.21;1.88;0.68
66505;SPS30;53332;51.082;5.832;2024-02-23T02:06:46;0.36;0.35;0.32;0.26;2.07;2.07;2.06;2.01;1.71;0.68
66505;SPS30;53332;51.082;5.832;2024-02-23T02:09:14;0.35;0.34;0.31;0.25;2.00;2.00;1.99;1.94;1.65;0.68
66505;SPS30;53332;51.082;5.832;2024-02-23T02:11:48;0.49;0.48;0.43;0.34;2.76;2.76;2.75;2.67;2.26;0.70
66505;SPS30;53332;51.082;5.832;2024-02-23T02:14:15;0.58;0.56;0.50;0.39;3.15;3.15;3.13;3.04;2.56;0.71
66505;SPS30;53332;51.082;5.832;2024-02-23T02:16:41;0.45;0.44;0.39;0.31;2.51;2.50;2.49;2.42;2.05;0.70
66505;SPS30;53332;51.082;5.832;2024-02-23T02:19:09;0.40;0.39;0.35;0.28;2.24;2.24;2.23;2.17;1.83;0.68
66505;SPS30;53332;51.082;5.832;2024-02-23T02:21:35;0.44;0.43;0.38;0.31;2.45;2.44;2.43;2.36;2.00;0.69
66505;SPS30;53332;51.082;5.832;2024-02-23T02:24:03;0.46;0.45;0.39;0.31;2.47;2.46;2.45;2.37;2.00;0.70
66505;SPS30;53332;51.082;5.832;2024-02-23T02:26:29;0.42;0.41;0.36;0.28;2.21;2.21;2.19;2.12;1.78;0.71
66505;SPS30;53332;51.082;5.832;2024-02-23T02:28:54;0.45;0.44;0.38;0.29;2.37;2.36;2.35;2.27;1.91;0.71
66505;SPS30;53332;51.082;5.832;2024-02-23T02:31:20;0.40;0.39;0.34;0.26;2.12;2.12;2.10;2.04;1.71;0.70
66505;SPS30;53332;51.082;5.832;2024-02-23T02:33:46;0.36;0.35;0.31;0.24;1.91;1.91;1.90;1.84;1.55;0.70
66505;SPS30;53332;51.082;5.832;2024-02-23T02:36:11;0.49;0.48;0.42;0.33;2.65;2.64;2.63;2.55;2.15;0.70
66505;SPS30;53332;51.082;5.832;2024-02-23T02:38:37;0.45;0.44;0.39;0.31;2.46;2.46;2.45;2.38;2.01;0.69
66505;SPS30;53332;51.082;5.832;2024-02-23T02:41:03;0.64;0.63;0.56;0.45;3.60;3.59;3.58;3.48;2.95;0.69
66505;SPS30;53332;51.082;5.832;2024-02-23T02:43:29;0.72;0.71;0.64;0.52;4.13;4.13;4.11;4.01;3.40;0.68
66505;SPS30;53332;51.082;5.832;2024-02-23T02:45:55;0.54;0.53;0.47;0.38;3.08;3.08;3.06;2.99;2.54;0.69
66505;SPS30;53332;51.082;5.832;2024-02-23T02:48:22;0.48;0.47;0.41;0.33;2.66;2.66;2.65;2.58;2.18;0.69
66505;SPS30;53332;51.082;5.832;2024-02-23T02:50:48;0.62;0.60;0.53;0.42;3.33;3.33;3.31;3.21;2.70;0.70
66505;SPS30;53332;51.082;5.832;2024-02-23T02:53:15;0.49;0.48;0.42;0.33;2.62;2.62;2.60;2.53;2.13;0.71
66505;SPS30;53332;51.082;5.832;2024-02-23T02:55:41;0.53;0.52;0.45;0.35;2.84;2.84;2.82;2.73;2.30;0.71
66505;SPS30;53332;51.082;5.832;2024-02-23T02:58:08;0.48;0.46;0.40;0.31;2.51;2.51;2.49;2.41;2.02;0.70
66505;SPS30;53332;51.082;5.832;2024-02-23T03:00:36;0.55;0.53;0.47;0.36;2.90;2.90;2.88;2.79;2.34;0.70
66505;SPS30;53332;51.082;5.832;2024-02-23T03:03:01;0.54;0.53;0.46;0.36;2.87;2.86;2.85;2.76;2.31;0.70
66505;SPS30;53332;51.082;5.832;2024-02-23T03:05:27;0.49;0.48;0.42;0.33;2.64;2.64;2.62;2.54;2.14;0.70
66505;SPS30;53332;51.082;5.832;2024-02-23T03:07:52;0.60;0.58;0.51;0.41;3.27;3.26;3.24;3.15;2.66;0.69
66505;SPS30;53332;51.082;5.832;2024-02-23T03:10:18;0.41;0.40;0.35;0.28;2.22;2.22;2.21;2.14;1.81;0.69
66505;SPS30;53332;51.082;5.832;2024-02-23T03:12:43;0.49;0.48;0.43;0.34;2.76;2.75;2.74;2.67;2.26;0.68
66505;SPS30;53332;51.082;5.832;2024-02-23T03:15:09;0.58;0.56;0.50;0.40;3.21;3.21;3.19;3.11;2.63;0.68
66505;SPS30;53332;51.082;5.832;2024-02-23T03:17:37;0.45;0.44;0.39;0.32;2.55;2.54;2.53;2.46;2.09;0.68
66505;SPS30;53332;51.082;5.832;2024-02-23T03:20:04;0.39;0.38;0.34;0.27;2.20;2.20;2.19;2.14;1.81;0.68
66505;SPS30;53332;51.082;5.832;2024-02-23T03:22:31;0.51;0.50;0.45;0.37;3.00;2.99;2.98;2.91;2.48;0.66
66505;SPS30;53332;51.082;5.832;2024-02-23T03:24:57;0.48;0.47;0.43;0.35;2.84;2.84;2.82;2.76;2.36;0.65
66505;SPS30;53332;51.082;5.832;2024-02-23T03:27:27;0.48;0.47;0.42;0.34;2.75;2.75;2.74;2.67;2.27;0.66
66505;SPS30;53332;51.082;5.832;2024-02-23T03:29:54;0.41;0.40;0.36;0.29;2.32;2.32;2.31;2.25;1.90;0.67
66505;SPS30;53332;51.082;5.832;2024-02-23T03:32:20;0.41;0.40;0.36;0.29;2.32;2.31;2.30;2.24;1.90;0.66
66505;SPS30;53332;51.082;5.832;2024-02-23T03:34:45;0.56;0.54;0.49;0.39;3.16;3.15;3.14;3.06;2.60;0.66
66505;SPS30;53332;51.082;5.832;2024-02-23T03:37:11;0.48;0.47;0.42;0.34;2.69;2.69;2.68;2.61;2.21;0.67
66505;SPS30;53332;51.082;5.832;2024-02-23T03:39:36;0.49;0.48;0.42;0.34;2.72;2.72;2.71;2.63;2.23;0.67
66505;SPS30;53332;51.082;5.832;2024-02-23T03:42:03;0.48;0.47;0.41;0.32;2.59;2.59;2.57;2.49;2.10;0.68
66505;SPS30;53332;51.082;5.832;2024-02-23T03:44:28;0.49;0.48;0.42;0.32;2.61;2.60;2.59;2.51;2.11;0.69
66505;SPS30;53332;51.082;5.832;2024-02-23T03:46:54;0.50;0.49;0.43;0.34;2.69;2.69;2.67;2.59;2.19;0.68
66505;SPS30;53332;51.082;5.832;2024-02-23T03:49:19;0.54;0.53;0.47;0.37;2.99;2.99;2.97;2.89;2.44;0.68
66505;SPS30;53332;51.082;5.832;2024-02-23T03:51:45;0.47;0.46;0.41;0.32;2.59;2.58;2.57;2.50;2.11;0.68
66505;SPS30;53332;51.082;5.832;2024-02-23T03:54:11;0.46;0.45;0.40;0.32;2.56;2.55;2.54;2.47;2.08;0.68
66505;SPS30;53332;51.082;5.832;2024-02-23T03:56:39;0.54;0.52;0.46;0.37;2.97;2.96;2.95;2.87;2.42;0.69
66505;SPS30;53332;51.082;5.832;2024-02-23T03:59:06;0.62;0.61;0.54;0.43;3.47;3.47;3.45;3.36;2.84;0.68
66505;SPS30;53332;51.082;5.832;2024-02-23T04:01:36;0.70;0.69;0.61;0.49;3.93;3.92;3.90;3.80;3.22;0.68
66505;SPS30;53332;51.082;5.832;2024-02-23T04:04:02;0.48;0.47;0.42;0.34;2.71;2.71;2.69;2.62;2.22;0.67
66505;SPS30;53332;51.082;5.832;2024-02-23T04:06:28;0.55;0.54;0.49;0.39;3.14;3.13;3.12;3.04;2.58;0.67
66505;SPS30;53332;51.082;5.832;2024-02-23T04:08:54;0.55;0.54;0.48;0.39;3.10;3.10;3.08;3.00;2.54;0.68
66505;SPS30;53332;51.082;5.832;2024-02-23T04:11:19;0.52;0.51;0.45;0.36;2.88;2.87;2.86;2.78;2.35;0.68
66505;SPS30;53332;51.082;5.832;2024-02-23T04:13:45;0.63;0.62;0.54;0.43;3.44;3.43;3.41;3.31;2.79;0.68
66505;SPS30;53332;51.082;5.832;2024-02-23T04:16:11;0.47;0.46;0.40;0.32;2.56;2.56;2.54;2.47;2.08;0.68
66505;SPS30;53332;51.082;5.832;2024-02-23T04:18:36;0.70;0.68;0.60;0.47;3.75;3.74;3.72;3.61;3.04;0.69
66505;SPS30;53332;51.082;5.832;2024-02-23T04:21:02;0.73;0.71;0.62;0.48;3.86;3.86;3.83;3.71;3.11;0.70
66505;SPS30;53332;51.082;5.832;2024-02-23T04:23:27;0.53;0.52;0.45;0.34;2.76;2.76;2.74;2.65;2.22;0.71
66505;SPS30;53332;51.082;5.832;2024-02-23T04:25:53;0.56;0.55;0.48;0.37;2.97;2.97;2.95;2.86;2.40;0.69
66505;SPS30;53332;51.082;5.832;2024-02-23T04:28:19;0.56;0.54;0.47;0.37;2.93;2.93;2.91;2.81;2.36;0.69
66505;SPS30;53332;51.082;5.832;2024-02-23T04:30:45;0.49;0.48;0.42;0.33;2.62;2.61;2.60;2.52;2.12;0.69
66505;SPS30;53332;51.082;5.832;2024-02-23T04:33:10;0.40;0.39;0.34;0.26;2.11;2.10;2.09;2.02;1.70;0.70
66505;SPS30;53332;51.082;5.832;2024-02-23T04:35:36;0.38;0.37;0.32;0.25;1.99;1.99;1.98;1.91;1.61;0.71
66505;SPS30;53332;51.082;5.832;2024-02-23T04:38:01;0.64;0.62;0.54;0.42;3.34;3.33;3.31;3.20;2.68;0.71
66505;SPS30;53332;51.082;5.832;2024-02-23T04:40:27;0.71;0.69;0.60;0.46;3.72;3.72;3.69;3.57;2.99;0.70
66505;SPS30;53332;51.082;5.832;2024-02-23T04:42:52;0.55;0.54;0.47;0.36;2.87;2.87;2.85;2.75;2.30;0.71
66505;SPS30;53332;51.082;5.832;2024-02-23T04:45:18;0.51;0.49;0.43;0.32;2.59;2.59;2.57;2.48;2.07;0.71
66505;SPS30;53332;51.082;5.832;2024-02-23T04:47:43;0.71;0.69;0.60;0.45;3.61;3.61;3.58;3.45;2.88;0.71
66505;SPS30;53332;51.082;5.832;2024-02-23T04:50:11;0.74;0.72;0.62;0.46;3.67;3.66;3.63;3.49;2.90;0.73
66505;SPS30;53332;51.082;5.832;2024-02-23T04:52:37;0.62;0.60;0.51;0.38;3.02;3.02;3.00;2.87;2.38;0.74
66505;SPS30;53332;51.082;5.832;2024-02-23T04:55:03;0.59;0.58;0.48;0.35;2.82;2.81;2.79;2.67;2.20;0.75
66505;SPS30;53332;51.082;5.832;2024-02-23T04:57:28;0.59;0.58;0.48;0.35;2.78;2.77;2.75;2.62;2.15;0.76
66505;SPS30;53332;51.082;5.832;2024-02-23T04:59:54;0.57;0.56;0.47;0.34;2.71;2.70;2.68;2.56;2.11;0.75
66505;SPS30;53332;51.082;5.832;2024-02-23T05:02:19;0.74;0.71;0.60;0.44;3.52;3.51;3.48;3.34;2.75;0.75
66505;SPS30;53332;51.082;5.832;2024-02-23T05:04:45;0.67;0.65;0.55;0.40;3.20;3.19;3.16;3.03;2.50;0.75
66505;SPS30;53332;51.082;5.832;2024-02-23T05:07:11;0.46;0.45;0.38;0.28;2.24;2.24;2.22;2.13;1.77;0.75
66505;SPS30;53332;51.082;5.832;2024-02-23T05:09:37;0.47;0.46;0.39;0.28;2.29;2.28;2.27;2.17;1.80;0.75
66505;SPS30;53332;51.082;5.832;2024-02-23T05:12:03;0.54;0.52;0.44;0.32;2.56;2.56;2.53;2.43;2.00;0.75
66505;SPS30;53332;51.082;5.832;2024-02-23T05:14:28;0.53;0.52;0.43;0.31;2.47;2.47;2.44;2.33;1.91;0.76
66505;SPS30;53332;51.082;5.832;2024-02-23T05:16:54;0.73;0.71;0.58;0.41;3.30;3.30;3.26;3.10;2.53;0.77
66505;SPS30;53332;51.082;5.832;2024-02-23T05:19:19;0.56;0.54;0.44;0.31;2.51;2.50;2.48;2.35;1.92;0.77
66505;SPS30;53332;51.082;5.832;2024-02-23T05:21:45;0.74;0.72;0.60;0.42;3.37;3.36;3.33;3.17;2.59;0.77
66505;SPS30;53332;51.082;5.832;2024-02-23T05:24:11;0.72;0.70;0.58;0.40;3.25;3.25;3.22;3.06;2.49;0.77
66505;SPS30;53332;51.082;5.832;2024-02-23T05:26:36;0.89;0.86;0.71;0.49;3.97;3.97;3.93;3.73;3.03;0.77
66505;SPS30;53332;51.082;5.832;2024-02-23T05:29:02;0.95;0.92;0.77;0.54;4.35;4.35;4.30;4.10;3.35;0.76
66505;SPS30;53332;51.082;5.832;2024-02-23T05:31:43;0.81;0.78;0.65;0.46;3.73;3.73;3.69;3.52;2.89;0.76
66505;SPS30;53332;51.082;5.832;2024-02-23T05:34:13;0.70;0.67;0.56;0.40;3.23;3.23;3.20;3.05;2.51;0.76
66505;SPS30;53332;51.082;5.832;2024-02-23T05:36:39;0.73;0.70;0.59;0.42;3.36;3.35;3.32;3.17;2.60;0.76
66505;SPS30;53332;51.082;5.832;2024-02-23T05:39:05;0.69;0.67;0.56;0.40;3.23;3.22;3.20;3.05;2.50;0.76
66505;SPS30;53332;51.082;5.832;2024-02-23T05:41:32;0.73;0.70;0.58;0.41;3.29;3.28;3.25;3.09;2.53;0.77
66505;SPS30;53332;51.082;5.832;2024-02-23T05:43:58;1.03;0.99;0.81;0.56;4.49;4.48;4.44;4.20;3.41;0.78
66505;SPS30;53332;51.082;5.832;2024-02-23T05:46:24;0.98;0.95;0.77;0.53;4.26;4.25;4.20;3.98;3.22;0.77
66505;SPS30;53332;51.082;5.832;2024-02-23T05:48:49;0.91;0.88;0.72;0.50;4.06;4.05;4.01;3.81;3.11;0.76
66505;SPS30;53332;51.082;5.832;2024-02-23T05:51:15;0.82;0.79;0.65;0.46;3.72;3.71;3.68;3.50;2.86;0.76
66505;SPS30;53332;51.082;5.832;2024-02-23T05:53:40;1.04;1.00;0.83;0.58;4.71;4.70;4.65;4.43;3.62;0.77
66505;SPS30;53332;51.082;5.832;2024-02-23T05:56:06;1.06;1.02;0.86;0.62;4.97;4.96;4.92;4.70;3.87;0.75
66505;SPS30;53332;51.082;5.832;2024-02-23T05:58:32;0.91;0.88;0.74;0.53;4.29;4.29;4.25;4.06;3.35;0.75
66505;SPS30;53332;51.082;5.832;2024-02-23T06:00:58;0.94;0.91;0.76;0.55;4.39;4.38;4.34;4.14;3.40;0.76
66505;SPS30;53332;51.082;5.832;2024-02-23T06:03:23;0.93;0.90;0.75;0.53;4.25;4.24;4.20;4.00;3.27;0.76
66505;SPS30;53332;51.082;5.832;2024-02-23T06:05:49;0.77;0.75;0.62;0.44;3.55;3.55;3.51;3.35;2.74;0.76
66505;SPS30;53332;51.082;5.832;2024-02-23T06:08:14;0.84;0.81;0.68;0.48;3.88;3.88;3.84;3.66;3.00;0.76
66505;SPS30;53332;51.082;5.832;2024-02-23T06:10:40;0.78;0.75;0.62;0.44;3.52;3.52;3.48;3.32;2.71;0.76
66505;SPS30;53332;51.082;5.832;2024-02-23T06:13:08;0.70;0.68;0.57;0.40;3.25;3.25;3.22;3.07;2.52;0.75
66505;SPS30;53332;51.082;5.832;2024-02-23T06:15:33;0.77;0.74;0.62;0.45;3.61;3.60;3.57;3.41;2.81;0.75
66505;SPS30;53332;51.082;5.832;2024-02-23T06:17:59;0.74;0.71;0.60;0.43;3.45;3.45;3.42;3.26;2.68;0.74
66505;SPS30;53332;51.082;5.832;2024-02-23T06:20:24;0.87;0.84;0.70;0.50;4.01;4.00;3.97;3.78;3.10;0.75
66505;SPS30;53332;51.082;5.832;2024-02-23T06:22:50;0.76;0.73;0.61;0.44;3.53;3.52;3.49;3.33;2.74;0.75
66505;SPS30;53332;51.082;5.832;2024-02-23T06:25:15;0.87;0.84;0.71;0.51;4.09;4.09;4.05;3.87;3.18;0.75
66505;SPS30;53332;51.082;5.832;2024-02-23T06:27:41;0.90;0.87;0.74;0.54;4.33;4.32;4.28;4.10;3.39;0.74
66505;SPS30;53332;51.082;5.832;2024-02-23T06:30:06;0.91;0.88;0.75;0.56;4.50;4.50;4.46;4.29;3.56;0.73
66505;SPS30;53332;51.082;5.832;2024-02-23T06:32:33;0.66;0.64;0.54;0.40;3.19;3.18;3.16;3.02;2.50;0.74
66505;SPS30;53332;51.082;5.832;2024-02-23T06:34:58;0.61;0.59;0.50;0.36;2.90;2.90;2.88;2.75;2.27;0.74
66505;SPS30;53332;51.082;5.832;2024-02-23T06:37:24;0.63;0.61;0.52;0.37;3.00;3.00;2.97;2.84;2.34;0.75
66505;SPS30;53332;51.082;5.832;2024-02-23T06:39:49;0.85;0.82;0.69;0.50;4.04;4.03;4.00;3.83;3.16;0.74
66505;SPS30;53332;51.082;5.832;2024-02-23T06:42:20;0.83;0.81;0.68;0.50;4.04;4.04;4.00;3.84;3.18;0.74
66505;SPS30;53332;51.082;5.832;2024-02-23T06:44:46;0.75;0.73;0.62;0.47;3.78;3.78;3.75;3.61;3.01;0.72
66505;SPS30;53332;51.082;5.832;2024-02-23T06:47:12;0.83;0.81;0.70;0.54;4.31;4.30;4.27;4.13;3.46;0.70
66505;SPS30;53332;51.082;5.832;2024-02-23T06:49:41;1.08;1.05;0.90;0.67;5.41;5.41;5.37;5.17;4.30;0.70
66505;SPS30;53332;51.082;5.832;2024-02-23T06:52:07;0.84;0.81;0.69;0.51;4.12;4.12;4.08;3.92;3.25;0.70
66505;SPS30;53332;51.082;5.832;2024-02-23T06:54:33;0.98;0.95;0.80;0.59;4.76;4.75;4.72;4.53;3.75;0.70
66505;SPS30;53332;51.082;5.832;2024-02-23T06:56:58;1.06;1.03;0.88;0.65;5.23;5.22;5.18;4.98;4.13;0.70
66505;SPS30;53332;51.082;5.832;2024-02-23T06:59:24;0.95;0.92;0.79;0.59;4.74;4.74;4.70;4.52;3.76;0.70
66505;SPS30;53332;51.082;5.832;2024-02-23T07:01:50;0.83;0.80;0.68;0.50;4.03;4.02;3.99;3.83;3.17;0.70
66505;SPS30;53332;51.082;5.832;2024-02-23T07:04:16;0.71;0.69;0.58;0.43;3.45;3.45;3.42;3.28;2.71;0.71
66505;SPS30;53332;51.082;5.832;2024-02-23T07:06:42;0.67;0.65;0.55;0.41;3.29;3.28;3.26;3.13;2.59;0.72
66505;SPS30;53332;51.082;5.832;2024-02-23T07:09:08;0.94;0.91;0.78;0.58;4.62;4.61;4.58;4.40;3.64;0.72
66505;SPS30;53332;51.082;5.832;2024-02-23T07:11:36;0.90;0.87;0.75;0.56;4.51;4.50;4.47;4.30;3.58;0.71
66505;SPS30;53332;51.082;5.832;2024-02-23T07:14:02;0.89;0.86;0.74;0.56;4.47;4.46;4.43;4.26;3.55;0.72
66505;SPS30;53332;51.082;5.832;2024-02-23T07:16:27;1.02;0.99;0.84;0.62;4.99;4.99;4.95;4.75;3.94;0.73
66505;SPS30;53332;51.082;5.832;2024-02-23T07:18:53;1.02;0.99;0.84;0.62;5.00;4.99;4.95;4.75;3.94;0.73
66505;SPS30;53332;51.082;5.832;2024-02-23T07:21:20;1.23;1.19;1.01;0.73;5.91;5.90;5.85;5.60;4.63;0.73
66505;SPS30;53332;51.082;5.832;2024-02-23T07:23:45;0.81;0.79;0.66;0.48;3.84;3.83;3.80;3.63;2.98;0.74
66505;SPS30;53332;51.082;5.832;2024-02-23T07:26:11;0.69;0.67;0.56;0.40;3.18;3.18;3.15;3.00;2.46;0.74
66505;SPS30;53332;51.082;5.832;2024-02-23T07:28:36;0.75;0.73;0.61;0.43;3.49;3.48;3.45;3.29;2.70;0.74
66505;SPS30;53332;51.082;5.832;2024-02-23T07:31:02;0.70;0.68;0.57;0.41;3.34;3.33;3.30;3.16;2.60;0.73
66505;SPS30;53332;51.082;5.832;2024-02-23T07:33:28;0.80;0.78;0.64;0.46;3.66;3.66;3.62;3.45;2.82;0.75
66505;SPS30;53332;51.082;5.832;2024-02-23T07:35:53;0.98;0.95;0.77;0.53;4.29;4.28;4.24;4.01;3.25;0.77
66505;SPS30;53332;51.082;5.832;2024-02-23T07:38:19;0.89;0.86;0.71;0.49;3.95;3.94;3.90;3.70;3.01;0.77
66505;SPS30;53332;51.082;5.832;2024-02-23T07:40:44;0.80;0.77;0.64;0.44;3.53;3.53;3.49;3.31;2.69;0.77
66505;SPS30;53332;51.082;5.832;2024-02-23T07:43:10;1.02;0.99;0.81;0.56;4.50;4.49;4.45;4.21;3.42;0.76
66505;SPS30;53332;51.082;5.832;2024-02-23T07:45:36;1.02;0.98;0.81;0.56;4.48;4.47;4.42;4.19;3.40;0.77
66505;SPS30;53332;51.082;5.832;2024-02-23T07:48:02;0.96;0.93;0.76;0.53;4.28;4.28;4.23;4.02;3.27;0.77
66505;SPS30;53332;51.082;5.832;2024-02-23T07:50:28;0.91;0.88;0.73;0.52;4.20;4.19;4.16;3.97;3.25;0.75
66505;SPS30;53332;51.082;5.832;2024-02-23T07:52:54;0.85;0.82;0.69;0.50;4.03;4.03;3.99;3.82;3.15;0.74
66505;SPS30;53332;51.082;5.832;2024-02-23T07:55:20;0.87;0.85;0.71;0.52;4.18;4.18;4.14;3.97;3.27;0.74
66505;SPS30;53332;51.082;5.832;2024-02-23T07:57:45;0.90;0.88;0.74;0.55;4.41;4.41;4.37;4.20;3.48;0.74
66505;SPS30;53332;51.082;5.832;2024-02-23T08:00:11;0.71;0.69;0.59;0.45;3.59;3.58;3.56;3.43;2.86;0.73
66505;SPS30;53332;51.082;5.832;2024-02-23T08:02:37;0.80;0.78;0.66;0.49;3.97;3.96;3.93;3.78;3.14;0.74
66505;SPS30;53332;51.082;5.832;2024-02-23T08:05:03;0.90;0.87;0.74;0.54;4.31;4.30;4.27;4.08;3.37;0.75
66505;SPS30;53332;51.082;5.832;2024-02-23T08:07:29;0.61;0.59;0.50;0.37;2.94;2.94;2.91;2.79;2.30;0.74
66505;SPS30;53332;51.082;5.832;2024-02-23T08:09:56;0.73;0.71;0.60;0.44;3.55;3.55;3.52;3.38;2.80;0.73
66505;SPS30;53332;51.082;5.832;2024-02-23T08:12:22;0.66;0.64;0.54;0.40;3.23;3.23;3.20;3.07;2.55;0.74
66505;SPS30;53332;51.082;5.832;2024-02-23T08:14:48;0.68;0.66;0.56;0.41;3.31;3.31;3.28;3.15;2.61;0.74
66505;SPS30;53332;51.082;5.832;2024-02-23T08:17:18;0.84;0.82;0.69;0.51;4.07;4.06;4.03;3.86;3.19;0.75
66505;SPS30;53332;51.082;5.832;2024-02-23T08:19:44;0.82;0.79;0.66;0.47;3.80;3.80;3.76;3.59;2.95;0.76
66505;SPS30;53332;51.082;5.832;2024-02-23T08:22:10;0.80;0.77;0.64;0.45;3.66;3.65;3.62;3.45;2.82;0.77
66505;SPS30;53332;51.082;5.832;2024-02-23T08:24:35;0.61;0.59;0.50;0.36;2.88;2.88;2.85;2.73;2.24;0.75
66505;SPS30;53332;51.082;5.832;2024-02-23T08:27:01;0.97;0.94;0.79;0.57;4.60;4.59;4.55;4.36;3.59;0.74
66505;SPS30;53332;51.082;5.832;2024-02-23T08:29:27;0.67;0.65;0.55;0.41;3.26;3.26;3.23;3.10;2.56;0.73
66505;SPS30;53332;51.082;5.832;2024-02-23T08:31:53;0.66;0.65;0.55;0.41;3.28;3.28;3.25;3.12;2.59;0.73
66505;SPS30;53332;51.082;5.832;2024-02-23T08:34:18;0.55;0.54;0.46;0.34;2.74;2.74;2.72;2.61;2.17;0.72
66505;SPS30;53332;51.082;5.832;2024-02-23T08:36:44;0.72;0.69;0.59;0.44;3.53;3.52;3.50;3.36;2.79;0.73
66505;SPS30;53332;51.082;5.832;2024-02-23T08:39:10;0.81;0.78;0.66;0.49;3.93;3.92;3.89;3.73;3.09;0.74
66505;SPS30;53332;51.082;5.832;2024-02-23T08:41:35;0.76;0.73;0.62;0.45;3.63;3.63;3.60;3.45;2.85;0.73
66505;SPS30;53332;51.082;5.832;2024-02-23T08:44:01;0.78;0.75;0.63;0.46;3.67;3.66;3.63;3.47;2.86;0.74
66505;SPS30;53332;51.082;5.832;2024-02-23T08:46:26;0.60;0.58;0.49;0.35;2.82;2.81;2.79;2.66;2.19;0.74
66505;SPS30;53332;51.082;5.832;2024-02-23T08:48:52;0.74;0.72;0.61;0.44;3.56;3.56;3.53;3.38;2.79;0.73
66505;SPS30;53332;51.082;5.832;2024-02-23T08:51:17;0.62;0.60;0.50;0.36;2.93;2.93;2.90;2.78;2.29;0.74
66505;SPS30;53332;51.082;5.832;2024-02-23T08:53:43;0.73;0.70;0.59;0.42;3.40;3.39;3.36;3.21;2.64;0.75
66505;SPS30;53332;51.082;5.832;2024-02-23T08:56:08;0.75;0.72;0.60;0.43;3.48;3.48;3.45;3.29;2.70;0.76
66505;SPS30;53332;51.082;5.832;2024-02-23T08:58:34;0.88;0.85;0.71;0.51;4.09;4.08;4.04;3.86;3.16;0.76
66505;SPS30;53332;51.082;5.832;2024-02-23T09:01:00;0.86;0.84;0.70;0.49;3.97;3.96;3.93;3.74;3.07;0.75
66505;SPS30;53332;51.082;5.832;2024-02-23T09:03:25;1.00;0.97;0.80;0.56;4.54;4.53;4.49;4.27;3.49;0.75
66505;SPS30;53332;51.082;5.832;2024-02-23T09:05:51;0.86;0.84;0.69;0.48;3.89;3.89;3.85;3.66;2.98;0.75
66505;SPS30;53332;51.082;5.832;2024-02-23T09:08:17;0.96;0.93;0.77;0.54;4.34;4.33;4.29;4.08;3.33;0.75
66505;SPS30;53332;51.082;5.832;2024-02-23T09:10:42;0.85;0.82;0.68;0.48;3.86;3.85;3.82;3.63;2.97;0.75
66505;SPS30;53332;51.082;5.832;2024-02-23T09:13:08;1.09;1.06;0.87;0.60;4.86;4.85;4.81;4.56;3.71;0.77
66505;SPS30;53332;51.082;5.832;2024-02-23T09:15:33;0.81;0.78;0.64;0.45;3.61;3.60;3.57;3.39;2.76;0.77
66505;SPS30;53332;51.082;5.832;2024-02-23T09:17:59;0.88;0.85;0.71;0.50;3.99;3.98;3.95;3.75;3.06;0.76
66505;SPS30;53332;51.082;5.832;2024-02-23T09:20:24;1.07;1.04;0.86;0.60;4.85;4.85;4.80;4.57;3.73;0.77
66505;SPS30;53332;51.082;5.832;2024-02-23T09:22:50;1.22;1.18;0.97;0.68;5.44;5.43;5.38;5.10;4.15;0.77
66505;SPS30;53332;51.082;5.832;2024-02-23T09:25:15;0.94;0.91;0.75;0.52;4.15;4.14;4.10;3.89;3.16;0.78
66505;SPS30;53332;51.082;5.832;2024-02-23T09:27:41;0.92;0.89;0.73;0.50;4.06;4.06;4.02;3.81;3.09;0.79
66505;SPS30;53332;51.082;5.832;2024-02-23T09:30:12;0.74;0.71;0.59;0.41;3.28;3.27;3.24;3.07;2.50;0.79
66505;SPS30;53332;51.082;5.832;2024-02-23T09:32:38;1.09;1.05;0.87;0.60;4.84;4.83;4.79;4.54;3.70;0.79